Time;durP1;ratioP1;P1;durP2;ratioP2;P2;SDS_P1;SDS_P2;PMS_P1;PMS_P2;Temp;Humidity;BMP_temperature;BMP_pressure;BME280_temperature;BME280_humidity;BME280_pressure;Samples;Min_cycle;Max_cycle;Signal;HPM_P1;HPM_P2
2021/05/22 00:03:23;;;;;;;0.93;0.47;;;12.20;70.10;;;;;;10051501;28;20468;-61
2021/05/22 00:08:14;;;;;;;0.85;0.50;;;12.20;70.10;;;;;;10052657;28;20910;-63
2021/05/22 00:13:05;;;;;;;3.75;0.65;;;12.20;69.90;;;;;;10051586;28;20110;-65
2021/05/22 00:17:56;;;;;;;0.73;0.30;;;12.10;69.90;;;;;;10051555;28;20043;-65
2021/05/22 00:22:47;;;;;;;1.38;0.70;;;12.20;70.10;;;;;;10051639;28;20033;-65
2021/05/22 00:27:38;;;;;;;1.17;0.45;;;12.20;69.90;;;;;;10050346;28;21103;-61
2021/05/22 00:32:29;;;;;;;0.85;0.60;;;12.30;69.80;;;;;;10052009;28;20265;-61
2021/05/22 00:37:19;;;;;;;0.30;0.20;;;12.30;69.70;;;;;;10050100;28;20083;-65
2021/05/22 00:42:10;;;;;;;1.60;0.60;;;12.30;69.80;;;;;;10050891;28;20039;-63
2021/05/22 00:47:02;;;;;;;1.02;0.57;;;12.30;69.60;;;;;;10046951;28;20049;-63
2021/05/22 00:51:53;;;;;;;0.88;0.38;;;12.10;69.90;;;;;;10051099;28;20033;-67
2021/05/22 00:56:45;;;;;;;0.65;0.40;;;12.00;70.00;;;;;;10049893;28;20091;-66
2021/05/22 01:01:36;;;;;;;0.85;0.55;;;11.80;70.60;;;;;;10049989;28;20059;-66
2021/05/22 01:06:32;;;;;;;1.10;0.85;;;11.80;70.60;;;;;;10049883;28;20063;-62
2021/05/22 01:11:28;;;;;;;0.40;0.30;;;11.80;70.90;;;;;;10048927;28;20025;-63
2021/05/22 01:16:21;;;;;;;1.05;0.50;;;11.80;71.10;;;;;;10050940;28;20465;-64
2021/05/22 01:21:12;;;;;;;0.57;0.30;;;11.80;71.50;;;;;;10049267;28;20119;-62
2021/05/22 01:26:04;;;;;;;1.17;0.40;;;11.80;72.30;;;;;;10050236;28;20341;-64
2021/05/22 01:30:55;;;;;;;1.50;0.55;;;11.70;72.20;;;;;;10048108;28;20044;-62
2021/05/22 01:35:46;;;;;;;1.45;0.60;;;11.60;72.50;;;;;;10047707;28;20088;-61
2021/05/22 01:40:37;;;;;;;1.10;0.85;;;11.60;72.90;;;;;;10047210;28;20573;-59
2021/05/22 01:45:41;;;;;;;1.30;0.45;;;11.60;73.00;;;;;;10048860;28;20128;-61
2021/05/22 01:50:34;;;;;;;0.68;0.43;;;11.60;73.30;;;;;;10047857;28;21238;-61
2021/05/22 01:55:27;;;;;;;0.57;0.47;;;11.60;73.20;;;;;;10048257;28;20037;-61
2021/05/22 02:00:18;;;;;;;1.95;0.80;;;11.60;73.60;;;;;;10048109;28;20040;-66
2021/05/22 02:05:10;;;;;;;3.10;0.88;;;11.60;73.40;;;;;;10048182;28;20061;-64
2021/05/22 02:10:01;;;;;;;0.88;0.65;;;11.60;73.70;;;;;;10047543;28;20072;-60
2021/05/22 02:14:55;;;;;;;0.93;0.50;;;11.60;73.70;;;;;;10047188;28;20553;-63
2021/05/22 02:19:48;;;;;;;1.15;1.00;;;11.60;73.80;;;;;;10048918;28;20064;-63
2021/05/22 02:24:39;;;;;;;0.65;0.38;;;11.60;73.90;;;;;;10047558;28;20242;-61
2021/05/22 02:29:33;;;;;;;1.35;0.70;;;11.60;73.90;;;;;;10049047;28;20499;-64
2021/05/22 02:34:37;;;;;;;1.73;0.50;;;11.50;73.90;;;;;;10046502;28;20045;-61
2021/05/22 02:39:28;;;;;;;2.10;0.65;;;11.50;74.10;;;;;;10047109;28;20040;-62
2021/05/22 02:44:21;;;;;;;1.48;0.40;;;11.40;74.30;;;;;;10046121;28;20753;-65
2021/05/22 02:49:15;;;;;;;0.93;0.55;;;11.40;74.50;;;;;;10046560;28;20124;-61
2021/05/22 02:54:06;;;;;;;7.15;0.90;;;11.40;74.40;;;;;;10046906;28;20402;-63
2021/05/22 02:58:58;;;;;;;1.58;0.65;;;11.30;74.90;;;;;;10045410;28;20041;-60
2021/05/22 03:03:49;;;;;;;2.75;0.95;;;11.10;75.20;;;;;;10044701;28;21563;-59
2021/05/22 03:08:44;;;;;;;2.33;0.60;;;11.10;75.20;;;;;;10044161;28;20036;-64
2021/05/22 03:13:35;;;;;;;1.55;0.40;;;10.90;75.40;;;;;;10044111;28;20302;-62
2021/05/22 03:18:26;;;;;;;1.73;1.23;;;10.80;75.70;;;;;;10044705;28;20075;-59
2021/05/22 03:23:16;;;;;;;1.92;0.40;;;10.80;75.40;;;;;;10053981;28;20048;-65
2021/05/22 03:28:07;;;;;;;1.52;1.42;;;10.70;75.50;;;;;;10051451;28;20424;-60
2021/05/22 03:32:58;;;;;;;0.43;0.30;;;10.70;75.50;;;;;;10054875;28;20040;-60
2021/05/22 03:37:48;;;;;;;0.40;0.20;;;10.70;75.40;;;;;;10053023;28;20041;-64
2021/05/22 03:42:39;;;;;;;0.45;0.45;;;10.60;75.80;;;;;;10053230;28;20079;-65
2021/05/22 03:47:30;;;;;;;0.65;0.40;;;10.60;75.80;;;;;;10052833;28;20543;-64
2021/05/22 03:52:21;;;;;;;1.17;0.43;;;10.50;76.10;;;;;;10053155;28;20086;-66
2021/05/22 03:57:12;;;;;;;0.88;0.40;;;10.60;76.10;;;;;;10051501;28;20029;-61
2021/05/22 04:02:03;;;;;;;0.63;0.43;;;10.50;76.30;;;;;;10050384;28;20040;-61
2021/05/22 04:06:53;;;;;;;2.67;0.70;;;10.60;76.10;;;;;;10052199;28;20064;-62
2021/05/22 04:11:44;;;;;;;1.50;0.50;;;10.60;76.30;;;;;;10050169;28;20067;-65
2021/05/22 04:16:35;;;;;;;1.90;0.47;;;10.60;76.20;;;;;;10052056;28;20164;-67
2021/05/22 04:21:26;;;;;;;1.70;0.70;;;10.60;76.80;;;;;;10051628;28;20029;-65
2021/05/22 04:26:16;;;;;;;1.65;0.70;;;10.60;76.80;;;;;;10048578;28;20182;-67
2021/05/22 04:31:07;;;;;;;2.05;0.45;;;10.60;77.10;;;;;;10050058;28;20052;-70
2021/05/22 04:35:58;;;;;;;4.63;0.80;;;10.60;77.10;;;;;;10048629;28;20500;-67
2021/05/22 04:40:49;;;;;;;1.30;0.63;;;10.60;77.30;;;;;;10051753;28;20029;-67
2021/05/22 04:45:39;;;;;;;1.52;0.57;;;10.70;77.30;;;;;;10051281;28;21328;-60
2021/05/22 04:50:32;;;;;;;1.17;1.02;;;10.80;76.90;;;;;;10051497;28;20364;-62
2021/05/22 04:55:23;;;;;;;2.20;0.80;;;10.90;76.60;;;;;;10050010;28;20033;-63
2021/05/22 05:00:14;;;;;;;1.02;0.60;;;11.00;76.40;;;;;;10049379;28;20802;-70
2021/05/22 05:05:06;;;;;;;1.90;0.98;;;11.00;76.30;;;;;;10048671;28;20045;-66
2021/05/22 05:09:57;;;;;;;2.85;1.35;;;11.10;76.30;;;;;;10048201;28;20029;-69
2021/05/22 05:14:47;;;;;;;4.20;0.68;;;11.30;75.90;;;;;;10050523;28;20456;-65
2021/05/22 05:19:38;;;;;;;1.27;0.70;;;11.30;76.00;;;;;;10048275;28;20032;-66
2021/05/22 05:24:29;;;;;;;1.45;0.70;;;11.40;75.90;;;;;;10049926;28;20052;-64
2021/05/22 05:29:20;;;;;;;0.90;0.60;;;11.50;75.70;;;;;;10045135;28;20037;-63
2021/05/22 05:34:11;;;;;;;1.23;1.13;;;11.60;75.40;;;;;;10047949;28;20029;-61
2021/05/22 05:39:03;;;;;;;3.92;1.58;;;11.60;75.20;;;;;;10046830;28;20056;-61
2021/05/22 05:43:53;;;;;;;2.67;1.30;;;11.60;75.10;;;;;;10045512;28;20121;-61
2021/05/22 05:48:44;;;;;;;2.08;1.27;;;11.70;75.00;;;;;;10048121;28;20055;-61
2021/05/22 05:53:35;;;;;;;1.65;0.68;;;11.70;74.90;;;;;;10048578;28;20040;-64
2021/05/22 05:58:26;;;;;;;1.58;0.75;;;11.70;74.70;;;;;;10048289;28;20048;-61
2021/05/22 06:03:30;;;;;;;3.85;0.90;;;11.80;74.50;;;;;;10048058;28;20589;-62
2021/05/22 06:08:21;;;;;;;1.42;0.80;;;12.00;74.10;;;;;;10048350;28;20539;-61
2021/05/22 06:13:12;;;;;;;5.35;1.30;;;12.10;73.40;;;;;;10046677;28;20043;-61
2021/05/22 06:18:03;;;;;;;3.45;0.88;;;12.40;73.00;;;;;;10045911;28;20348;-60
2021/05/22 06:22:54;;;;;;;4.03;0.93;;;12.50;72.40;;;;;;10046142;28;20102;-60
2021/05/22 06:27:45;;;;;;;4.13;1.17;;;12.60;72.10;;;;;;10045590;28;20028;-63
2021/05/22 06:32:36;;;;;;;5.80;1.02;;;12.70;71.50;;;;;;10044362;28;20039;-59
2021/05/22 06:37:27;;;;;;;3.85;1.20;;;12.80;71.20;;;;;;10045914;28;20087;-64
2021/05/22 06:42:19;;;;;;;1.92;0.95;;;12.90;70.90;;;;;;10046529;28;20051;-60
2021/05/22 06:47:09;;;;;;;2.80;1.42;;;12.90;70.30;;;;;;10045053;28;20041;-61
2021/05/22 06:52:02;;;;;;;4.03;1.00;;;13.00;70.10;;;;;;10046558;28;20037;-61
2021/05/22 06:56:53;;;;;;;2.60;0.82;;;13.10;69.90;;;;;;10044485;28;20033;-63
2021/05/22 07:01:43;;;;;;;5.47;0.73;;;13.10;69.20;;;;;;10045637;28;20028;-64
2021/05/22 07:06:34;;;;;;;4.20;1.05;;;13.20;68.90;;;;;;10042838;28;20059;-60
2021/05/22 07:11:26;;;;;;;3.33;0.88;;;13.20;68.60;;;;;;10045719;28;20063;-63
2021/05/22 07:16:17;;;;;;;2.08;0.80;;;13.30;68.40;;;;;;10044219;28;20443;-62
2021/05/22 07:21:07;;;;;;;3.80;0.93;;;13.40;68.00;;;;;;10044929;28;20486;-59
2021/05/22 07:25:58;;;;;;;1.67;0.70;;;13.50;68.10;;;;;;10045237;28;20041;-60
2021/05/22 07:30:49;;;;;;;2.58;0.50;;;13.60;66.90;;;;;;10043788;28;20598;-57
2021/05/22 07:35:40;;;;;;;2.92;0.82;;;13.70;65.90;;;;;;10044597;28;20356;-60
2021/05/22 07:40:31;;;;;;;4.40;0.98;;;14.00;64.80;;;;;;10044130;28;20108;-58
2021/05/22 07:45:22;;;;;;;2.00;0.70;;;14.10;64.10;;;;;;10044886;28;20897;-57
2021/05/22 07:50:14;;;;;;;2.25;0.70;;;14.10;63.10;;;;;;10044332;28;20629;-57
2021/05/22 07:55:05;;;;;;;5.10;1.67;;;14.10;61.10;;;;;;10044221;28;20056;-59
2021/05/22 07:59:56;;;;;;;5.20;2.35;;;14.40;60.60;;;;;;10042702;28;20310;-59
2021/05/22 08:04:46;;;;;;;5.38;2.60;;;14.60;59.70;;;;;;10043738;28;20431;-54
2021/05/22 08:09:37;;;;;;;4.47;1.77;;;14.70;58.30;;;;;;10050710;28;20036;-55
2021/05/22 08:14:28;;;;;;;2.40;1.30;;;14.90;57.70;;;;;;10050460;28;20036;-56
2021/05/22 08:19:19;;;;;;;4.50;1.30;;;15.00;57.30;;;;;;10052236;28;20029;-61
2021/05/22 08:24:10;;;;;;;2.90;1.10;;;15.20;56.80;;;;;;10049891;28;20040;-55
2021/05/22 08:29:02;;;;;;;2.72;0.88;;;15.10;55.20;;;;;;10051379;28;20036;-60
2021/05/22 08:33:53;;;;;;;2.47;0.70;;;15.30;54.80;;;;;;10050958;28;20383;-60
2021/05/22 08:38:44;;;;;;;1.25;0.50;;;15.40;53.10;;;;;;10049397;28;20037;-59
2021/05/22 08:43:35;;;;;;;3.60;1.52;;;15.40;51.80;;;;;;10049363;28;20110;-60
2021/05/22 08:48:27;;;;;;;3.13;0.80;;;15.40;51.80;;;;;;10050015;28;20330;-61
2021/05/22 08:53:18;;;;;;;1.20;0.60;;;15.60;51.10;;;;;;10051098;28;20033;-60
2021/05/22 08:58:08;;;;;;;1.33;0.80;;;15.80;50.10;;;;;;10048971;28;20036;-60
2021/05/22 09:02:59;;;;;;;3.70;0.60;;;16.00;49.40;;;;;;10049407;28;20467;-59
2021/05/22 09:07:56;;;;;;;3.67;0.50;;;16.10;49.20;;;;;;10049176;28;20037;-61
2021/05/22 09:12:49;;;;;;;1.17;0.70;;;16.30;48.30;;;;;;10050309;28;20029;-61
2021/05/22 09:17:59;;;;;;;1.02;0.70;;;16.20;47.30;;;;;;10047081;28;20466;-59
2021/05/22 09:23:01;;;;;;;0.70;0.35;;;16.20;47.10;;;;;;10047587;28;20860;-62
2021/05/22 09:27:54;;;;;;;2.78;1.27;;;16.30;46.00;;;;;;10050950;28;20068;-59
2021/05/22 09:32:46;;;;;;;0.85;0.73;;;16.80;46.20;;;;;;10045224;28;20048;-61
2021/05/22 09:37:47;;;;;;;1.88;0.70;;;16.80;45.00;;;;;;10046519;28;20120;-58
2021/05/22 09:42:41;;;;;;;1.25;0.55;;;16.90;44.40;;;;;;10046884;28;20440;-58
2021/05/22 09:47:43;;;;;;;1.63;0.60;;;16.90;43.80;;;;;;10047143;28;20072;-56
2021/05/22 09:52:34;;;;;;;1.02;0.70;;;17.00;43.10;;;;;;10048039;28;20553;-59
2021/05/22 09:57:38;;;;;;;0.90;0.63;;;16.90;42.50;;;;;;10047568;28;20117;-56
2021/05/22 10:02:59;;;;;;;2.92;0.70;;;17.00;41.90;;;;;;10046876;28;20076;-56
2021/05/22 10:07:55;;;;;;;1.20;0.50;;;17.10;41.40;;;;;;10046380;28;20069;-58
2021/05/22 10:12:46;;;;;;;0.70;0.50;;;17.50;41.60;;;;;;10047416;28;20894;-58
2021/05/22 10:17:38;;;;;;;2.00;0.65;;;17.60;41.10;;;;;;10045279;28;20055;-56
2021/05/22 10:22:29;;;;;;;1.63;0.88;;;17.80;40.20;;;;;;10046533;28;20181;-58
2021/05/22 10:27:21;;;;;;;2.13;0.80;;;18.10;40.00;;;;;;10047509;28;20056;-62
2021/05/22 10:32:31;;;;;;;1.02;0.50;;;18.40;39.80;;;;;;10046116;28;20399;-57
2021/05/22 10:37:45;;;;;;;2.05;0.38;;;18.10;39.30;;;;;;10046792;28;20414;-59
2021/05/22 10:42:35;;;;;;;2.08;1.08;;;17.90;39.20;;;;;;10046107;28;20065;-60
2021/05/22 10:47:28;;;;;;;1.40;0.60;;;18.00;39.60;;;;;;10046035;28;20132;-57
2021/05/22 10:52:20;;;;;;;1.30;0.50;;;18.20;39.10;;;;;;10045766;28;20029;-60
2021/05/22 10:57:11;;;;;;;0.98;0.60;;;18.00;39.10;;;;;;10046241;28;20609;-58
2021/05/22 11:02:02;;;;;;;1.92;0.45;;;18.30;39.60;;;;;;10044613;28;20038;-59
2021/05/22 11:06:56;;;;;;;1.90;1.02;;;18.50;39.00;;;;;;10045768;28;20051;-60
2021/05/22 11:11:47;;;;;;;1.65;0.50;;;18.30;39.70;;;;;;10041798;28;20037;-57
2021/05/22 11:16:37;;;;;;;0.80;0.50;;;17.60;40.10;;;;;;10042586;28;20418;-56
2021/05/22 11:21:28;;;;;;;0.75;0.40;;;17.20;41.00;;;;;;10046234;28;20378;-58
2021/05/22 11:26:52;;;;;;;2.00;0.70;;;16.40;43.60;;;;;;10044159;28;20157;-57
2021/05/22 11:31:43;;;;;;;1.08;0.40;;;15.90;46.50;;;;;;10045591;28;20056;-58
2021/05/22 11:36:34;;;;;;;1.02;0.82;;;16.60;46.00;;;;;;10044126;28;20634;-59
2021/05/22 11:41:29;;;;;;;3.20;0.85;;;16.60;46.60;;;;;;10046834;28;20091;-59
2021/05/22 11:46:23;;;;;;;0.53;0.40;;;16.60;46.90;;;;;;10048588;28;20638;-60
2021/05/22 11:51:24;;;;;;;0.47;0.43;;;16.70;47.40;;;;;;10052367;28;20052;-58
2021/05/22 11:56:16;;;;;;;5.57;0.60;;;17.30;46.30;;;;;;10051031;28;20755;-58
2021/05/22 12:01:19;;;;;;;1.13;0.90;;;17.50;45.70;;;;;;10052287;28;20380;-63
2021/05/22 12:06:20;;;;;;;1.90;0.60;;;17.70;44.60;;;;;;10048968;28;20045;-61
2021/05/22 12:11:16;;;;;;;1.30;0.90;;;17.60;44.00;;;;;;10052216;28;20375;-59
2021/05/22 12:16:14;;;;;;;1.60;0.43;;;18.10;43.40;;;;;;10051098;28;20045;-58
2021/05/22 12:21:05;;;;;;;0.60;0.40;;;18.70;41.60;;;;;;10050076;28;20044;-57
2021/05/22 12:25:57;;;;;;;0.52;0.35;;;19.20;41.00;;;;;;10049292;28;20048;-58
2021/05/22 12:30:51;;;;;;;1.35;0.43;;;19.40;40.10;;;;;;10050849;28;20029;-61
2021/05/22 12:35:42;;;;;;;3.30;0.43;;;19.10;40.00;;;;;;10049927;28;20033;-56
2021/05/22 12:40:47;;;;;;;2.20;0.77;;;19.90;40.20;;;;;;10049887;28;20271;-57
2021/05/22 12:45:42;;;;;;;4.10;0.50;;;20.00;38.80;;;;;;10050348;28;20140;-60
2021/05/22 12:50:33;;;;;;;1.13;0.50;;;19.00;39.20;;;;;;10049248;28;20374;-57
2021/05/22 12:55:28;;;;;;;3.22;0.50;;;18.40;38.90;;;;;;10050296;28;20403;-59
2021/05/22 13:00:22;;;;;;;1.20;0.60;;;18.10;38.80;;;;;;10048697;28;20115;-55
2021/05/22 13:05:13;;;;;;;1.23;0.35;;;17.60;40.20;;;;;;10049476;28;20053;-57
2021/05/22 13:10:09;;;;;;;1.38;0.82;;;17.10;41.40;;;;;;10049526;28;20602;-57
2021/05/22 13:15:03;;;;;;;0.52;0.40;;;17.10;42.20;;;;;;10049268;28;20048;-57
2021/05/22 13:19:55;;;;;;;0.95;0.60;;;18.00;42.80;;;;;;10048467;28;20143;-54
2021/05/22 13:25:06;;;;;;;0.82;0.28;;;21.40;41.00;;;;;;10048377;28;20777;-60
2021/05/22 13:29:59;;;;;;;1.10;0.40;;;24.00;37.50;;;;;;10047205;28;20037;-57
2021/05/22 13:34:50;;;;;;;1.60;0.60;;;24.80;36.80;;;;;;10047621;28;20426;-57
2021/05/22 13:39:41;;;;;;;2.10;0.60;;;25.60;35.80;;;;;;10048278;28;20041;-60
2021/05/22 13:44:32;;;;;;;0.32;0.32;;;26.30;34.80;;;;;;10045686;28;20576;-57
2021/05/22 13:49:23;;;;;;;0.77;0.40;;;26.70;34.20;;;;;;10048559;28;20135;-58
2021/05/22 13:54:14;;;;;;;0.32;0.30;;;27.20;33.30;;;;;;10047270;28;20725;-58
2021/05/22 13:59:05;;;;;;;3.08;0.82;;;27.50;32.70;;;;;;10047678;28;20120;-59
2021/05/22 14:03:56;;;;;;;1.17;0.50;;;27.60;32.50;;;;;;10046066;28;20746;-60
2021/05/22 14:08:47;;;;;;;1.30;0.65;;;27.70;32.20;;;;;;10047929;28;20120;-58
2021/05/22 14:13:37;;;;;;;2.05;0.77;;;27.70;31.90;;;;;;10047138;28;20113;-58
2021/05/22 14:18:28;;;;;;;1.90;0.65;;;27.50;30.90;;;;;;10046911;28;20503;-59
2021/05/22 14:23:20;;;;;;;0.82;0.60;;;27.80;30.50;;;;;;10047356;28;20069;-58
2021/05/22 14:28:10;;;;;;;2.30;0.83;;;27.70;30.30;;;;;;10044576;28;20052;-57
2021/05/22 14:33:02;;;;;;;1.58;0.75;;;28.00;29.80;;;;;;10045732;28;20065;-57
2021/05/22 14:37:53;;;;;;;0.60;0.60;;;27.10;29.80;;;;;;10046399;28;20080;-58
2021/05/22 14:42:44;;;;;;;2.63;0.60;;;27.50;29.10;;;;;;10046090;28;20033;-58
2021/05/22 14:47:35;;;;;;;0.75;0.60;;;26.40;29.40;;;;;;10044343;28;20049;-59
2021/05/22 14:52:25;;;;;;;1.85;0.50;;;25.50;29.50;;;;;;10046181;28;20033;-58
2021/05/22 14:57:16;;;;;;;1.88;0.70;;;22.80;31.70;;;;;;10045665;28;20534;-60
2021/05/22 15:02:08;;;;;;;1.30;0.70;;;20.70;33.70;;;;;;10043437;28;20094;-58
2021/05/22 15:06:59;;;;;;;2.13;1.40;;;20.30;33.90;;;;;;10045442;28;21860;-60
2021/05/22 15:11:50;;;;;;;3.20;0.60;;;20.20;33.90;;;;;;10045397;28;20090;-59
2021/05/22 15:16:40;;;;;;;4.22;0.93;;;20.10;34.00;;;;;;10045698;28;20090;-59
2021/05/22 15:21:31;;;;;;;1.92;0.60;;;20.60;33.50;;;;;;10042466;28;20091;-59
2021/05/22 15:26:22;;;;;;;0.90;0.88;;;20.10;34.00;;;;;;10027213;28;20045;-59
2021/05/22 15:31:13;;;;;;;1.33;0.50;;;20.00;34.10;;;;;;10044995;28;20526;-62
2021/05/22 15:36:04;;;;;;;1.42;0.98;;;19.80;34.40;;;;;;10045333;28;20307;-53
2021/05/22 15:40:55;;;;;;;0.75;0.65;;;19.70;34.50;;;;;;10045114;28;20394;-60
2021/05/22 15:45:50;;;;;;;8.50;2.22;;;19.50;34.90;;;;;;10039560;28;20041;-60
2021/05/22 16:00:53;;;;;;;1.27;0.75;;;24.70;31.50;;;;;;10044028;28;20129;-57
2021/05/22 16:05:48;;;;;;;2.10;0.82;;;22.70;34.10;;;;;;10042575;28;20114;-55
2021/05/22 16:10:38;;;;;;;1.63;0.75;;;20.80;36.50;;;;;;10043908;28;20913;-54
2021/05/22 16:15:29;;;;;;;1.40;0.85;;;19.90;37.20;;;;;;10038317;28;20040;-54
2021/05/22 16:20:20;;;;;;;2.15;0.68;;;19.30;37.50;;;;;;10043508;28;20415;-53
2021/05/22 16:25:11;;;;;;;1.58;0.75;;;19.00;37.60;;;;;;10044820;28;20045;-50
2021/05/22 16:30:05;;;;;;;1.23;0.57;;;18.30;39.10;;;;;;10047327;28;20102;-56
2021/05/22 16:34:55;;;;;;;1.60;0.70;;;21.30;35.20;;;;;;10049871;28;20097;-53
2021/05/22 16:39:46;;;;;;;0.70;0.57;;;20.60;36.60;;;;;;10045927;28;20039;-51
2021/05/22 16:44:37;;;;;;;2.08;1.20;;;19.30;38.50;;;;;;10047869;28;20041;-53
2021/05/22 16:49:34;;;;;;;1.85;1.20;;;18.90;38.90;;;;;;10046042;28;20032;-54
2021/05/22 16:54:25;;;;;;;1.67;0.75;;;18.60;39.10;;;;;;10047545;28;20148;-53
2021/05/22 16:59:21;;;;;;;1.35;0.70;;;18.40;39.20;;;;;;10049314;28;20571;-53
2021/05/22 17:04:12;;;;;;;1.80;1.00;;;18.30;39.40;;;;;;10049048;28;20045;-55
2021/05/22 17:09:03;;;;;;;1.75;0.95;;;18.30;39.80;;;;;;10049615;28;20486;-54
2021/05/22 17:13:53;;;;;;;1.10;1.00;;;18.20;40.10;;;;;;10048554;28;20048;-55
2021/05/22 17:18:44;;;;;;;3.40;1.10;;;18.10;40.60;;;;;;10049630;28;20067;-53
2021/05/22 17:23:35;;;;;;;1.58;0.60;;;18.10;41.10;;;;;;10046820;28;20577;-55
2021/05/22 17:28:26;;;;;;;1.30;0.80;;;17.80;42.20;;;;;;10049364;28;20033;-53
2021/05/22 17:33:16;;;;;;;3.90;1.73;;;17.20;43.70;;;;;;10047250;28;20030;-53
2021/05/22 17:38:07;;;;;;;2.58;0.63;;;17.00;43.90;;;;;;10048219;28;20136;-53
2021/05/22 17:43:00;;;;;;;1.23;0.90;;;16.80;44.50;;;;;;10048267;28;20041;-54
2021/05/22 17:47:53;;;;;;;1.10;0.75;;;16.80;44.80;;;;;;10047851;28;20047;-52
2021/05/22 17:52:47;;;;;;;1.55;0.85;;;16.60;45.40;;;;;;10048276;28;20858;-54
2021/05/22 17:57:38;;;;;;;2.03;0.82;;;16.50;45.80;;;;;;10047871;28;20033;-53
2021/05/22 18:02:29;;;;;;;1.45;0.80;;;16.50;46.10;;;;;;10048125;28;20045;-51
2021/05/22 18:07:19;;;;;;;2.83;0.90;;;16.60;46.20;;;;;;10046763;28;20060;-53
2021/05/22 18:12:10;;;;;;;3.85;1.55;;;16.60;46.50;;;;;;10044243;28;20060;-54
2021/05/22 18:17:01;;;;;;;2.10;1.48;;;16.50;46.70;;;;;;10045118;28;20349;-52
2021/05/22 18:21:52;;;;;;;2.65;1.23;;;16.60;47.10;;;;;;10041249;28;20538;-55
2021/05/22 18:26:43;;;;;;;3.70;1.58;;;16.60;47.10;;;;;;10038628;28;20130;-52
2021/05/22 18:31:35;;;;;;;3.13;1.70;;;16.50;47.30;;;;;;10042090;28;20036;-54
2021/05/22 18:36:26;;;;;;;2.13;1.67;;;16.60;47.50;;;;;;10040241;28;20075;-50
2021/05/22 18:41:17;;;;;;;3.50;1.75;;;16.60;47.80;;;;;;10041558;28;20024;-52
2021/05/22 18:46:08;;;;;;;1.58;0.80;;;16.60;48.00;;;;;;10041737;28;20424;-53
2021/05/22 18:50:59;;;;;;;0.80;0.55;;;16.40;48.20;;;;;;10039351;28;21159;-56
2021/05/22 18:55:49;;;;;;;0.80;0.50;;;16.30;47.80;;;;;;10039456;28;20043;-53
2021/05/22 19:00:40;;;;;;;1.02;0.50;;;16.30;47.20;;;;;;10039654;28;20032;-53
2021/05/22 19:05:31;;;;;;;2.25;0.40;;;16.20;46.90;;;;;;10039883;28;20056;-54
2021/05/22 19:10:23;;;;;;;1.83;0.60;;;16.10;46.90;;;;;;10041981;28;20068;-54
2021/05/22 19:15:18;;;;;;;2.05;0.43;;;16.10;46.60;;;;;;10040727;28;20388;-53
2021/05/22 19:20:10;;;;;;;1.33;0.40;;;16.00;46.70;;;;;;10041935;28;21115;-53
2021/05/22 19:25:02;;;;;;;1.85;0.57;;;15.90;46.70;;;;;;10037109;28;20036;-58
2021/05/22 19:29:53;;;;;;;1.60;0.63;;;15.90;46.70;;;;;;10040655;28;20102;-55
2021/05/22 19:34:44;;;;;;;0.75;0.52;;;15.80;46.80;;;;;;10038426;28;20021;-52
2021/05/22 19:39:34;;;;;;;0.77;0.50;;;15.80;46.90;;;;;;10037677;28;20458;-54
2021/05/22 19:44:25;;;;;;;0.45;0.32;;;15.60;47.20;;;;;;10038635;28;20025;-55
2021/05/22 19:49:16;;;;;;;0.43;0.43;;;15.40;47.60;;;;;;10039161;28;21187;-57
2021/05/22 19:54:07;;;;;;;1.10;0.65;;;15.40;47.70;;;;;;10038887;28;20074;-56
2021/05/22 19:58:58;;;;;;;0.90;0.60;;;15.40;48.40;;;;;;10038753;28;20499;-58
2021/05/22 20:03:49;;;;;;;1.08;0.55;;;15.40;47.70;;;;;;10044747;28;20045;-55
2021/05/22 20:08:40;;;;;;;1.23;0.75;;;15.50;47.50;;;;;;10048314;28;20033;-57
2021/05/22 20:13:32;;;;;;;2.20;1.38;;;15.60;47.40;;;;;;10049622;28;20059;-54
2021/05/22 20:18:22;;;;;;;0.50;0.50;;;15.60;47.20;;;;;;10048202;28;20029;-59
2021/05/22 20:23:13;;;;;;;0.85;0.40;;;15.60;47.30;;;;;;10048755;28;20033;-55
2021/05/22 20:28:04;;;;;;;0.85;0.40;;;15.60;47.60;;;;;;10048226;28;20041;-58
2021/05/22 20:32:55;;;;;;;0.85;0.55;;;15.50;47.60;;;;;;10047109;28;20040;-60
2021/05/22 20:37:46;;;;;;;1.35;0.60;;;15.50;47.70;;;;;;10044476;28;20032;-56
2021/05/22 20:42:38;;;;;;;1.88;1.13;;;15.50;47.80;;;;;;10043722;28;20526;-57
2021/05/22 20:47:29;;;;;;;1.88;0.75;;;15.50;47.80;;;;;;10045537;28;20485;-58
2021/05/22 20:52:19;;;;;;;2.33;0.80;;;15.60;47.80;;;;;;10046083;28;20043;-55
2021/05/22 20:57:11;;;;;;;1.05;0.80;;;15.60;47.90;;;;;;10044776;28;20423;-59
2021/05/22 21:02:03;;;;;;;1.08;0.32;;;15.60;48.00;;;;;;10038701;28;20048;-57
2021/05/22 21:06:53;;;;;;;2.15;0.60;;;15.60;48.10;;;;;;10042302;28;20091;-59
2021/05/22 21:11:44;;;;;;;1.15;0.65;;;15.60;48.30;;;;;;10040501;28;20530;-59
2021/05/22 21:16:35;;;;;;;2.45;0.88;;;15.60;48.30;;;;;;10041125;28;20033;-57
2021/05/22 21:21:26;;;;;;;1.45;0.70;;;15.50;48.60;;;;;;10037882;28;20796;-54
2021/05/22 21:26:16;;;;;;;4.35;0.93;;;15.50;48.60;;;;;;10041451;28;20275;-56
2021/05/22 21:31:08;;;;;;;0.65;0.65;;;15.50;48.70;;;;;;10041030;28;20439;-55
2021/05/22 21:35:59;;;;;;;1.38;0.55;;;15.40;49.20;;;;;;10040567;28;20029;-55
2021/05/22 21:40:51;;;;;;;1.42;0.80;;;15.50;49.30;;;;;;10043401;28;20045;-53
2021/05/22 21:45:42;;;;;;;0.90;0.70;;;15.40;49.40;;;;;;10041261;28;20089;-54
2021/05/22 21:50:33;;;;;;;0.93;0.50;;;15.50;49.50;;;;;;10042670;28;21391;-53
2021/05/22 21:55:27;;;;;;;0.73;0.40;;;15.50;49.40;;;;;;10040826;28;20127;-54
2021/05/22 22:00:42;;;;;;;2.13;0.52;;;15.40;49.80;;;;;;10041499;28;20681;-54
2021/05/22 22:05:33;;;;;;;0.55;0.30;;;15.30;50.10;;;;;;10040406;28;20542;-54
2021/05/22 22:10:25;;;;;;;0.40;0.25;;;15.30;50.60;;;;;;10040868;28;20159;-55
2021/05/22 22:15:19;;;;;;;0.82;0.47;;;15.20;50.60;;;;;;10040926;28;20035;-56
2021/05/22 22:20:11;;;;;;;0.77;0.22;;;15.30;50.90;;;;;;10040864;28;20097;-54
2021/05/22 22:25:03;;;;;;;2.35;0.43;;;15.20;51.00;;;;;;10039474;28;20717;-59
2021/05/22 22:29:54;;;;;;;1.00;0.50;;;15.20;51.10;;;;;;10038905;28;20041;-55
2021/05/22 22:34:50;;;;;;;1.20;0.40;;;15.20;51.20;;;;;;10040022;28;20036;-55
2021/05/22 22:39:41;;;;;;;0.70;0.32;;;15.20;51.30;;;;;;10038394;28;20372;-56
2021/05/22 22:44:31;;;;;;;0.28;0.28;;;15.10;51.50;;;;;;10039629;28;20037;-58
2021/05/22 22:49:22;;;;;;;0.98;0.40;;;15.00;51.80;;;;;;10039292;28;20713;-56
2021/05/22 22:54:13;;;;;;;0.30;0.30;;;15.10;51.90;;;;;;10039835;28;20453;-55
2021/05/22 22:59:04;;;;;;;2.40;0.50;;;15.00;52.20;;;;;;10039284;28;20037;-57
2021/05/22 23:03:54;;;;;;;1.48;0.40;;;15.00;52.50;;;;;;10037975;28;21104;-53
2021/05/22 23:08:45;;;;;;;0.80;0.75;;;14.90;52.60;;;;;;10038061;28;20064;-55
2021/05/22 23:13:37;;;;;;;0.63;0.30;;;14.90;52.70;;;;;;10039231;28;20327;-53
2021/05/22 23:18:27;;;;;;;0.80;0.50;;;14.90;52.90;;;;;;10039667;28;20029;-54
2021/05/22 23:23:19;;;;;;;0.40;0.40;;;14.80;53.20;;;;;;10038472;28;20442;-52
2021/05/22 23:28:10;;;;;;;0.80;0.75;;;14.70;53.40;;;;;;10039888;28;20183;-55
2021/05/22 23:33:03;;;;;;;0.95;0.60;;;14.60;53.90;;;;;;10038245;28;20497;-54
2021/05/22 23:37:54;;;;;;;0.60;0.52;;;14.70;53.90;;;;;;10043274;28;20167;-55
2021/05/22 23:42:46;;;;;;;0.85;0.30;;;14.60;54.20;;;;;;10043543;28;20128;-52
2021/05/22 23:47:37;;;;;;;1.13;0.50;;;14.60;54.20;;;;;;10044458;28;20048;-57
2021/05/22 23:52:29;;;;;;;0.35;0.35;;;14.70;54.20;;;;;;10046100;28;20480;-59
2021/05/22 23:57:20;;;;;;;0.25;0.25;;;14.60;54.30;;;;;;10046076;28;20058;-60
